Terminal Aerodrome Forecast
Issued by NWS Jackson, KY

Home | Current Version | Previous Version | Text Only | Print | Product List | Glossary On
Versions: 1 2 3 4 5 6 7 8 9 10 11 12
000
FTUS43 KJKL 221738
TAFJKL
TAF
KJKL 221738Z 2218/2318 VRB04KT P6SM SCT040
     FM230600 VRB03KT 4SM BR SCT045 SCT250
     FM231200 VRB03KT P6SM FEW050 SCT100=

USA.gov is the U.S. government's official web portal to all federal, state and local government web resources and services.